createdAt,value
2019-02-24T00:00:20.902Z,99.99
2019-02-24T00:02:25.047Z,99.99
2019-02-24T00:03:25.280Z,99.99
2019-02-24T00:05:29.449Z,99.99
2019-02-24T00:06:29.685Z,99.99
2019-02-24T00:08:22.788Z,99.99
2019-02-24T00:09:23.024Z,99.99
2019-02-24T00:11:27.170Z,99.99
2019-02-24T00:12:27.409Z,99.99
2019-02-24T00:14:31.581Z,99.99
2019-02-24T00:15:31.813Z,99.99
2019-02-24T00:17:35.957Z,99.99
2019-02-24T00:18:36.193Z,99.99
2019-02-24T00:20:40.360Z,99.99
2019-02-24T00:21:40.600Z,99.99
2019-02-24T00:23:44.761Z,99.99
2019-02-24T00:24:44.998Z,99.99
2019-02-24T00:26:49.155Z,99.99
2019-02-24T00:27:49.387Z,99.99
2019-02-24T00:29:53.552Z,99.99
2019-02-24T00:30:53.794Z,99.99
2019-02-24T00:32:57.940Z,99.99
2019-02-24T00:33:58.177Z,99.99
2019-02-24T00:36:02.353Z,99.99
2019-02-24T00:37:02.587Z,99.99
2019-02-24T00:39:06.745Z,99.99
2019-02-24T00:40:06.983Z,99.99
2019-02-24T00:42:11.128Z,99.99
2019-02-24T00:43:11.365Z,99.99
2019-02-24T00:45:15.542Z,99.99
2019-02-24T00:46:15.779Z,99.99
2019-02-24T00:48:08.857Z,99.99
2019-02-24T00:49:09.093Z,99.99
2019-02-24T00:51:13.264Z,99.99
2019-02-24T00:52:13.501Z,99.99
2019-02-24T00:54:17.673Z,99.99
2019-02-24T00:55:17.905Z,99.99
2019-02-24T00:57:22.053Z,99.99
2019-02-24T00:58:22.291Z,99.99
2019-02-24T01:00:26.463Z,99.99
2019-02-24T01:01:26.699Z,99.99
2019-02-24T01:03:30.842Z,99.99
2019-02-24T01:04:31.076Z,99.99
2019-02-24T01:06:35.249Z,86.99
2019-02-24T01:07:35.482Z,72.64
2019-02-24T01:09:39.657Z,69.81
2019-02-24T01:10:39.888Z,71.22
2019-02-24T01:12:44.038Z,80.66
2019-02-24T01:13:44.273Z,83.03
2019-02-24T01:15:48.445Z,88.51
2019-02-24T01:16:48.681Z,91.06
2019-02-24T01:18:52.824Z,95.12
2019-02-24T01:19:53.061Z,94.74
2019-02-24T01:21:57.230Z,91.44
2019-02-24T01:22:57.471Z,89.54
2019-02-24T01:25:01.638Z,86.99
2019-02-24T01:26:01.872Z,85.68
2019-02-24T01:27:54.950Z,84.35
2019-02-24T01:28:55.183Z,81.61
2019-02-24T01:30:59.359Z,81.04
2019-02-24T01:31:59.597Z,78.68
2019-02-24T01:34:03.740Z,81.33
2019-02-24T01:35:03.978Z,84.92
2019-02-24T01:37:08.149Z,84.45
2019-02-24T01:38:08.389Z,81.42
2019-02-24T01:40:12.564Z,85.96
2019-02-24T01:41:12.796Z,92.47
2019-02-24T01:43:16.943Z,98.99
2019-02-24T01:44:17.179Z,99.99
2019-02-24T01:46:21.350Z,99.42
2019-02-24T01:47:21.581Z,99.65
2019-02-24T01:49:25.731Z,99.99
2019-02-24T01:50:25.967Z,99.99
2019-02-24T01:52:30.139Z,96.25
2019-02-24T01:53:30.372Z,95.59
2019-02-24T01:55:34.544Z,99.84
2019-02-24T01:56:34.783Z,97.10
2019-02-24T01:58:38.930Z,85.20
2019-02-24T01:59:39.166Z,80.76
2019-02-24T02:01:44.343Z,89.54
2019-02-24T02:02:44.582Z,92.47
2019-02-24T02:04:48.729Z,96.63
2019-02-24T02:05:48.965Z,98.71
2019-02-24T02:07:42.093Z,99.99
2019-02-24T02:08:42.297Z,99.99
2019-02-24T02:10:46.473Z,99.99
2019-02-24T02:11:46.712Z,98.24
2019-02-24T02:13:50.850Z,96.54
2019-02-24T02:14:51.085Z,94.46
2019-02-24T02:16:55.255Z,89.07
2019-02-24T02:17:55.487Z,88.04
2019-02-24T02:19:59.630Z,87.52
2019-02-24T02:20:59.866Z,88.89
2019-02-24T02:23:04.034Z,98.43
2019-02-24T02:24:04.268Z,98.14
2019-02-24T02:26:08.441Z,99.99
2019-02-24T02:27:08.678Z,99.99
2019-02-24T02:29:12.829Z,99.84
2019-02-24T02:30:13.062Z,87.56
2019-02-24T02:32:17.233Z,73.11
2019-02-24T02:33:17.469Z,75.57
2019-02-24T02:35:21.614Z,75.19
2019-02-24T02:36:21.848Z,65.17
2019-02-24T02:38:14.944Z,88.60
2019-02-24T02:39:15.179Z,94.46
2019-02-24T02:41:19.346Z,99.99
2019-02-24T02:42:19.582Z,99.99
2019-02-24T02:44:23.727Z,99.99
2019-02-24T02:45:23.962Z,99.46
2019-02-24T02:47:28.126Z,98.80
2019-02-24T02:48:28.361Z,97.77
2019-02-24T02:50:32.511Z,91.53
2019-02-24T02:51:32.748Z,89.54
2019-02-24T02:53:36.914Z,83.12
2019-02-24T02:54:37.150Z,83.08
2019-02-24T02:56:41.318Z,78.08
2019-02-24T02:57:41.552Z,78.74
2019-02-24T02:59:45.698Z,82.75
2019-02-24T03:00:45.933Z,84.07
2019-02-24T03:02:50.105Z,84.35
2019-02-24T03:03:50.341Z,82.93
2019-02-24T03:05:54.486Z,85.30
2019-02-24T03:06:54.720Z,85.68
2019-02-24T03:08:58.887Z,82.37
2019-02-24T03:09:59.122Z,86.90
2019-02-24T03:12:03.290Z,88.13
2019-02-24T03:13:03.521Z,88.98
2019-02-24T03:15:07.670Z,91.72
2019-02-24T03:16:07.903Z,92.38
2019-02-24T03:18:00.995Z,91.63
2019-02-24T03:19:01.227Z,92.19
2019-02-24T03:21:05.380Z,90.21
2019-02-24T03:22:05.619Z,89.45
2019-02-24T03:24:09.783Z,88.51
2019-02-24T03:25:10.021Z,88.51
2019-02-24T03:27:14.187Z,92.38
2019-02-24T03:28:14.420Z,92.57
2019-02-24T03:30:18.591Z,89.26
2019-02-24T03:31:18.799Z,86.52
2019-02-24T03:33:22.964Z,82.56
2019-02-24T03:34:23.198Z,82.09
2019-02-24T03:36:27.344Z,80.19
2019-02-24T03:37:27.579Z,78.50
2019-02-24T03:39:31.749Z,70.94
2019-02-24T03:40:31.990Z,68.07
2019-02-24T03:42:36.159Z,62.69
2019-02-24T03:43:36.392Z,63.73
2019-02-24T03:45:40.537Z,68.54
2019-02-24T03:46:40.776Z,64.67
2019-02-24T03:48:44.945Z,65.05
2019-02-24T03:49:45.179Z,65.05
2019-02-24T03:51:49.323Z,59.95
2019-02-24T03:52:49.555Z,68.07
2019-02-24T03:54:53.724Z,72.69
2019-02-24T03:55:53.960Z,74.87
2019-02-24T03:57:47.055Z,78.74
2019-02-24T03:58:47.293Z,79.21
2019-02-24T04:00:51.435Z,79.40
2019-02-24T04:01:51.669Z,81.38
2019-02-24T04:03:55.833Z,79.97
2019-02-24T04:04:56.076Z,72.69
2019-02-24T04:07:00.215Z,72.41
2019-02-24T04:08:00.453Z,76.66
2019-02-24T04:10:04.626Z,79.30
2019-02-24T04:11:04.857Z,78.12
2019-02-24T04:13:09.027Z,76.19
2019-02-24T04:14:09.268Z,75.24
2019-02-24T04:16:13.419Z,70.05
2019-02-24T04:17:13.650Z,68.92
2019-02-24T04:19:17.830Z,71.56
2019-02-24T04:20:18.062Z,72.79
2019-02-24T04:22:22.206Z,72.03
2019-02-24T04:23:22.442Z,72.60
2019-02-24T04:25:26.613Z,73.93
2019-02-24T04:26:26.851Z,73.17
2019-02-24T04:28:19.945Z,71.94
2019-02-24T04:29:24.712Z,72.13
2019-02-24T04:31:24.327Z,68.63
2019-02-24T04:32:24.562Z,62.59
2019-02-24T04:34:28.736Z,62.12
2019-02-24T04:35:28.973Z,64.67
2019-02-24T04:37:33.116Z,67.13
2019-02-24T04:38:33.355Z,70.53
2019-02-24T04:40:37.524Z,75.76
2019-02-24T04:41:37.764Z,77.36
2019-02-24T04:43:41.918Z,78.97
2019-02-24T04:44:42.154Z,78.78
2019-02-24T04:46:46.306Z,77.89
2019-02-24T04:47:46.539Z,76.70
2019-02-24T04:49:50.702Z,77.23
2019-02-24T04:50:50.936Z,75.62
2019-02-24T04:52:55.092Z,76.89
2019-02-24T04:53:55.329Z,78.12
2019-02-24T04:55:59.492Z,73.26
2019-02-24T04:56:59.726Z,73.68
2019-02-24T04:59:03.890Z,76.38
2019-02-24T05:00:04.125Z,76.76
2019-02-24T05:02:08.282Z,75.62
2019-02-24T05:03:08.526Z,75.81
2019-02-24T05:05:12.678Z,73.17
2019-02-24T05:06:12.920Z,72.69
2019-02-24T05:08:05.990Z,65.99
2019-02-24T05:09:06.223Z,64.76
2019-02-24T05:11:10.393Z,58.53
2019-02-24T05:12:10.626Z,53.81
2019-02-24T05:14:14.796Z,57.03
2019-02-24T05:15:15.028Z,57.03
2019-02-24T05:17:19.175Z,58.44
2019-02-24T05:18:19.409Z,56.27
2019-02-24T05:20:23.575Z,54.85
2019-02-24T05:21:23.810Z,55.23
2019-02-24T05:23:27.965Z,48.79
2019-02-24T05:24:28.200Z,47.20
2019-02-24T05:26:32.371Z,48.24
2019-02-24T05:27:32.606Z,49.54
2019-02-24T05:29:45.197Z,48.81
2019-02-24T05:30:36.987Z,53.63
2019-02-24T05:32:41.166Z,58.72
2019-02-24T05:33:41.391Z,58.25
2019-02-24T05:35:45.556Z,54.75
2019-02-24T05:36:45.791Z,58.06
2019-02-24T05:38:49.941Z,58.15
2019-02-24T05:39:50.176Z,58.63
2019-02-24T05:41:54.342Z,58.06
2019-02-24T05:42:54.578Z,56.74
2019-02-24T05:44:58.743Z,56.55
2019-02-24T05:45:58.991Z,54.85
2019-02-24T05:47:52.048Z,54.19
2019-02-24T05:48:52.282Z,51.07
2019-02-24T05:50:56.447Z,49.47
2019-02-24T05:51:56.683Z,50.79
2019-02-24T05:54:00.843Z,51.83
2019-02-24T05:55:01.075Z,51.92
2019-02-24T05:57:05.244Z,53.34
2019-02-24T05:58:05.486Z,52.78
2019-02-24T06:00:09.626Z,50.89
2019-02-24T06:01:09.861Z,49.47
2019-02-24T06:03:14.027Z,47.96
2019-02-24T06:04:14.263Z,49.09
2019-02-24T06:06:18.428Z,52.87
2019-02-24T06:07:18.660Z,56.17
2019-02-24T06:09:22.808Z,59.76
2019-02-24T06:10:23.043Z,61.55
2019-02-24T06:12:27.214Z,64.95
2019-02-24T06:13:27.447Z,64.76
2019-02-24T06:15:31.594Z,65.14
2019-02-24T06:16:31.829Z,64.95
2019-02-24T06:18:24.923Z,64.76
2019-02-24T06:19:25.194Z,67.32
2019-02-24T06:21:29.364Z,69.11
2019-02-24T06:22:29.601Z,68.54
2019-02-24T06:24:34.759Z,70.43
2019-02-24T06:25:35.002Z,70.90
2019-02-24T06:27:39.155Z,68.63
2019-02-24T06:28:39.391Z,68.07
2019-02-24T06:30:44.027Z,66.28
2019-02-24T06:31:44.264Z,69.43
2019-02-24T06:33:48.431Z,87.51
2019-02-24T06:34:48.667Z,99.47
2019-02-24T06:36:52.832Z,99.99
2019-02-24T06:37:53.067Z,99.99
2019-02-24T06:39:57.221Z,99.99
2019-02-24T06:40:57.457Z,99.99
2019-02-24T06:43:01.624Z,99.99
2019-02-24T06:44:01.862Z,99.99
2019-02-24T06:46:06.007Z,99.99
2019-02-24T06:47:06.246Z,99.99
2019-02-24T06:49:10.419Z,99.99
2019-02-24T06:50:10.653Z,99.99
2019-02-24T06:52:14.826Z,99.99
2019-02-24T06:53:15.064Z,99.99
2019-02-24T06:55:19.212Z,99.99
2019-02-24T06:56:19.450Z,99.15
2019-02-24T06:58:12.545Z,96.50
2019-02-24T06:59:12.784Z,93.84
2019-02-24T07:01:16.937Z,87.73
2019-02-24T07:02:17.174Z,84.88
2019-02-24T07:04:21.353Z,80.18
2019-02-24T07:05:21.588Z,79.42
2019-02-24T07:07:25.756Z,74.68
2019-02-24T07:08:25.990Z,73.86
2019-02-24T07:10:30.139Z,75.15
2019-02-24T07:11:30.380Z,78.56
2019-02-24T07:13:34.545Z,73.61
2019-02-24T07:14:34.782Z,71.14
2019-02-24T07:16:38.934Z,68.48
2019-02-24T07:17:39.168Z,67.47
2019-02-24T07:19:43.343Z,66.42
2019-02-24T07:20:43.575Z,65.76
2019-02-24T07:22:47.737Z,64.18
2019-02-24T07:23:47.970Z,64.18
2019-02-24T07:25:52.121Z,62.78
2019-02-24T07:26:52.359Z,62.02
2019-02-24T07:28:56.567Z,59.58
2019-02-24T07:29:56.800Z,58.62
2019-02-24T07:32:00.959Z,58.40
2019-02-24T07:33:01.197Z,58.50
2019-02-24T07:35:05.383Z,59.33
2019-02-24T07:36:05.624Z,59.52
2019-02-24T07:37:58.729Z,59.17
2019-02-24T07:38:58.968Z,59.64
2019-02-24T07:41:03.123Z,58.34
2019-02-24T07:42:03.359Z,57.87
2019-02-24T07:44:07.537Z,55.22
2019-02-24T07:45:07.779Z,54.78
2019-02-24T07:47:11.932Z,53.32
2019-02-24T07:48:12.173Z,54.30
2019-02-24T07:50:16.352Z,54.39
2019-02-24T07:51:16.591Z,54.21
2019-02-24T07:53:20.768Z,53.28
2019-02-24T07:54:21.015Z,52.80
2019-02-24T07:56:25.168Z,51.97
2019-02-24T07:57:25.409Z,51.50
2019-02-24T07:59:29.596Z,50.18
2019-02-24T08:00:32.330Z,49.59
2019-02-24T08:02:34.001Z,48.28
2019-02-24T08:03:34.246Z,47.73
2019-02-24T08:05:38.423Z,46.30
2019-02-24T08:06:38.664Z,46.13
2019-02-24T08:08:42.854Z,45.46
2019-02-24T08:09:43.091Z,44.79
2019-02-24T08:11:47.255Z,44.31
2019-02-24T08:12:47.499Z,44.60
2019-02-24T08:14:51.685Z,43.48
2019-02-24T08:15:51.928Z,43.48
2019-02-24T08:17:45.024Z,42.44
2019-02-24T08:18:49.602Z,41.75
2019-02-24T08:20:49.489Z,43.02
2019-02-24T08:21:49.715Z,43.30
2019-02-24T08:23:53.901Z,42.83
2019-02-24T08:24:54.148Z,42.44
2019-02-24T08:26:58.313Z,42.25
2019-02-24T08:27:58.557Z,42.73
2019-02-24T08:30:02.751Z,44.53
2019-02-24T08:31:02.995Z,44.45
2019-02-24T08:33:07.159Z,45.20
2019-02-24T08:34:07.405Z,43.09
2019-02-24T08:36:11.590Z,43.05
2019-02-24T08:37:11.835Z,43.07
2019-02-24T08:39:16.026Z,43.29
2019-02-24T08:40:16.272Z,43.00
2019-02-24T08:42:20.436Z,41.85
2019-02-24T08:43:20.691Z,41.49
2019-02-24T08:45:24.877Z,41.58
2019-02-24T08:46:25.123Z,41.22
2019-02-24T08:48:19.242Z,41.32
2019-02-24T08:49:18.466Z,40.84
2019-02-24T08:51:23.392Z,39.92
2019-02-24T08:52:22.904Z,39.25
2019-02-24T08:54:27.094Z,37.76
2019-02-24T08:55:27.347Z,36.90
2019-02-24T08:57:31.513Z,36.42
2019-02-24T08:58:31.766Z,35.96
2019-02-24T09:00:35.962Z,35.33
2019-02-24T09:01:36.217Z,36.08
2019-02-24T09:03:40.375Z,37.21
2019-02-24T09:04:40.625Z,37.59
2019-02-24T09:06:44.822Z,37.51
2019-02-24T09:07:45.065Z,37.43
2019-02-24T09:09:49.259Z,38.39
2019-02-24T09:10:49.511Z,37.82
2019-02-24T09:12:53.728Z,39.00
2019-02-24T09:13:53.926Z,39.79
2019-02-24T09:15:58.125Z,39.23
2019-02-24T09:16:58.369Z,38.70
2019-02-24T09:19:02.539Z,36.55
2019-02-24T09:20:02.794Z,35.03
2019-02-24T09:22:06.982Z,35.22
2019-02-24T09:23:07.234Z,34.67
2019-02-24T09:25:11.426Z,32.84
2019-02-24T09:26:11.676Z,32.75
2019-02-24T09:28:05.787Z,32.36
2019-02-24T09:29:06.037Z,31.59
2019-02-24T09:31:10.236Z,30.94
2019-02-24T09:32:10.486Z,32.12
2019-02-24T09:34:14.665Z,32.42
2019-02-24T09:35:14.914Z,32.07
2019-02-24T09:37:19.113Z,30.93
2019-02-24T09:38:19.365Z,31.32
2019-02-24T09:40:24.579Z,31.23
2019-02-24T09:41:24.833Z,31.90
2019-02-24T09:43:29.012Z,30.08
2019-02-24T09:44:29.263Z,30.00
2019-02-24T09:46:34.471Z,28.82
2019-02-24T09:47:34.722Z,28.84
2019-02-24T09:49:38.902Z,31.03
2019-02-24T09:50:39.157Z,30.38
2019-02-24T09:52:43.358Z,28.56
2019-02-24T09:53:43.610Z,29.64
2019-02-24T09:55:47.839Z,31.27
2019-02-24T09:56:48.093Z,31.45
2019-02-24T09:58:52.276Z,31.58
2019-02-24T09:59:52.531Z,30.85
2019-02-24T10:01:56.750Z,28.41
2019-02-24T10:02:57.620Z,26.57
2019-02-24T10:05:01.187Z,27.60
2019-02-24T10:06:01.441Z,27.83
2019-02-24T10:07:54.574Z,27.87
2019-02-24T10:08:54.825Z,28.20
2019-02-24T10:10:59.030Z,29.45
2019-02-24T10:11:59.284Z,28.60
2019-02-24T10:14:03.468Z,25.18
2019-02-24T10:15:03.723Z,24.79
2019-02-24T10:17:07.925Z,23.88
2019-02-24T10:18:08.180Z,22.38
2019-02-24T10:20:12.376Z,21.81
2019-02-24T10:21:12.624Z,19.81
2019-02-24T10:23:16.850Z,18.08
2019-02-24T10:24:17.104Z,18.04
2019-02-24T10:26:21.316Z,19.49
2019-02-24T10:27:21.577Z,19.84
2019-02-24T10:29:25.775Z,22.43
2019-02-24T10:30:26.035Z,24.19
2019-02-24T10:32:30.236Z,27.79
2019-02-24T10:33:30.492Z,28.75
2019-02-24T10:35:34.685Z,29.08
2019-02-24T10:36:34.931Z,30.91
2019-02-24T10:38:39.135Z,31.32
2019-02-24T10:39:39.389Z,31.29
2019-02-24T10:41:43.592Z,26.07
2019-02-24T10:42:43.851Z,24.54
2019-02-24T10:44:48.037Z,24.24
2019-02-24T10:45:48.293Z,23.69
2019-02-24T10:47:41.427Z,26.06
2019-02-24T10:48:41.681Z,27.53
2019-02-24T10:50:45.863Z,25.96
2019-02-24T10:51:46.115Z,26.70
2019-02-24T10:53:50.320Z,27.72
2019-02-24T10:54:50.575Z,25.57
2019-02-24T10:56:54.795Z,25.12
2019-02-24T10:57:55.042Z,23.88
2019-02-24T10:59:59.225Z,23.71
2019-02-24T11:00:59.476Z,23.22
2019-02-24T11:03:03.684Z,20.48
2019-02-24T11:04:03.938Z,19.91
2019-02-24T11:06:08.117Z,19.92
2019-02-24T11:07:08.373Z,22.02
2019-02-24T11:09:12.571Z,20.31
2019-02-24T11:10:12.826Z,21.53
2019-02-24T11:12:17.034Z,21.47
2019-02-24T11:13:17.288Z,21.33
2019-02-24T11:15:21.469Z,23.58
2019-02-24T11:16:21.731Z,22.53
2019-02-24T11:18:14.854Z,21.38
2019-02-24T11:19:15.108Z,21.09
2019-02-24T11:21:19.289Z,19.15
2019-02-24T11:22:19.545Z,19.45
2019-02-24T11:24:23.745Z,18.69
2019-02-24T11:25:24.678Z,17.51
2019-02-24T11:27:28.183Z,20.59
2019-02-24T11:28:28.437Z,20.23
2019-02-24T11:30:32.643Z,18.68
2019-02-24T11:31:38.393Z,18.89
2019-02-24T11:33:37.104Z,21.12
2019-02-24T11:34:37.357Z,21.00
2019-02-24T11:36:41.542Z,21.44
2019-02-24T11:37:41.813Z,22.61
2019-02-24T11:39:46.001Z,21.55
2019-02-24T11:40:46.257Z,22.05
2019-02-24T11:42:50.443Z,20.80
2019-02-24T11:43:50.697Z,19.55
2019-02-24T11:45:54.900Z,18.77
2019-02-24T11:46:55.156Z,18.59
2019-02-24T11:48:59.366Z,20.31
2019-02-24T11:49:59.619Z,21.64
2019-02-24T11:52:04.185Z,20.09
2019-02-24T11:53:04.058Z,20.38
2019-02-24T11:55:08.265Z,20.13
2019-02-24T11:56:08.575Z,19.35
2019-02-24T11:58:01.788Z,19.68
2019-02-24T11:59:02.170Z,22.20
2019-02-24T12:01:06.486Z,19.62
2019-02-24T12:02:06.786Z,19.71
2019-02-24T12:04:11.006Z,17.99
2019-02-24T12:05:11.259Z,18.36
2019-02-24T12:07:15.505Z,19.32
2019-02-24T12:08:15.867Z,19.80
2019-02-24T12:10:20.218Z,17.96
2019-02-24T12:11:20.630Z,17.95
2019-02-24T12:13:24.847Z,17.02
2019-02-24T12:14:25.233Z,16.84
2019-02-24T12:16:29.444Z,17.76
2019-02-24T12:17:29.782Z,17.10
2019-02-24T12:19:35.048Z,15.96
2019-02-24T12:20:34.483Z,16.54
2019-02-24T12:22:38.712Z,16.16
2019-02-24T12:23:38.984Z,15.01
2019-02-24T12:25:43.195Z,16.83
2019-02-24T12:26:43.538Z,16.75
2019-02-24T12:28:47.823Z,16.61
2019-02-24T12:29:48.261Z,17.38
2019-02-24T12:31:56.527Z,18.82
2019-02-24T12:32:52.667Z,19.76
2019-02-24T12:34:56.871Z,20.43
2019-02-24T12:35:57.135Z,20.62
2019-02-24T12:37:50.296Z,21.58
2019-02-24T12:38:50.544Z,22.38
2019-02-24T12:40:54.759Z,20.87
2019-02-24T12:41:55.075Z,18.64
2019-02-24T12:43:59.410Z,19.34
2019-02-24T12:44:59.797Z,19.12
2019-02-24T12:47:04.054Z,20.54
2019-02-24T12:48:04.309Z,20.64
2019-02-24T12:50:08.574Z,20.46
2019-02-24T12:51:08.952Z,20.38
2019-02-24T12:53:13.224Z,19.89
2019-02-24T12:54:14.248Z,20.26
2019-02-24T12:56:17.764Z,21.44
2019-02-24T12:57:18.022Z,21.44
2019-02-24T12:59:22.417Z,21.91
2019-02-24T13:00:22.487Z,21.52
2019-02-24T13:02:26.704Z,21.52
2019-02-24T13:03:26.955Z,21.06
2019-02-24T13:05:31.248Z,20.45
2019-02-24T13:06:31.586Z,21.03
2019-02-24T13:08:24.724Z,20.67
2019-02-24T13:09:24.972Z,20.66
2019-02-24T13:11:29.372Z,20.86
2019-02-24T13:12:29.521Z,20.57
2019-02-24T13:14:34.572Z,21.47
2019-02-24T13:15:34.868Z,21.75
2019-02-24T13:17:39.081Z,23.58
2019-02-24T13:18:39.460Z,24.26
2019-02-24T13:20:43.763Z,21.31
2019-02-24T13:21:44.021Z,20.63
2019-02-24T13:23:48.228Z,20.16
2019-02-24T13:24:48.539Z,19.88
2019-02-24T13:26:52.750Z,19.28
2019-02-24T13:27:53.172Z,18.41
2019-02-24T13:29:57.503Z,20.16
2019-02-24T13:30:57.821Z,21.81
2019-02-24T13:33:02.044Z,19.15
2019-02-24T13:34:02.330Z,18.57
2019-02-24T13:36:06.637Z,20.19
2019-02-24T13:37:06.887Z,20.76
2019-02-24T13:39:11.153Z,20.49
2019-02-24T13:40:11.569Z,19.90
2019-02-24T13:42:15.868Z,19.89
2019-02-24T13:43:16.728Z,19.77
2019-02-24T13:45:20.520Z,21.01
2019-02-24T13:46:20.694Z,21.20
2019-02-24T13:48:13.857Z,21.86
2019-02-24T13:49:14.105Z,22.15
2019-02-24T13:51:18.422Z,21.75
2019-02-24T13:52:18.694Z,21.56
2019-02-24T13:54:22.929Z,21.30
2019-02-24T13:55:23.282Z,21.01
2019-02-24T13:57:27.548Z,19.87
2019-02-24T13:58:27.806Z,20.25
2019-02-24T14:00:32.120Z,19.60
2019-02-24T14:01:32.461Z,17.97
2019-02-24T14:03:36.682Z,17.89
2019-02-24T14:04:36.976Z,16.92
2019-02-24T14:06:41.366Z,17.40
2019-02-24T14:07:41.549Z,17.29
2019-02-24T14:09:45.751Z,16.99
2019-02-24T14:10:46.043Z,17.09
2019-02-24T14:12:50.247Z,17.47
2019-02-24T14:13:50.650Z,17.95
2019-02-24T14:15:55.900Z,18.12
2019-02-24T14:16:55.350Z,18.30
2019-02-24T14:18:59.591Z,19.65
2019-02-24T14:20:00.044Z,20.13
2019-02-24T14:22:04.242Z,20.11
2019-02-24T14:23:04.619Z,20.40
2019-02-24T14:25:08.840Z,21.08
2019-02-24T14:26:09.270Z,21.37
2019-02-24T14:28:02.163Z,20.91
2019-02-24T14:29:02.418Z,20.34
2019-02-24T14:31:06.775Z,19.88
2019-02-24T14:32:07.026Z,19.79
2019-02-24T14:34:11.219Z,19.90
2019-02-24T14:35:11.472Z,19.61
2019-02-24T14:37:15.680Z,18.55
2019-02-24T14:38:15.930Z,18.84
2019-02-24T14:40:20.131Z,18.71
2019-02-24T14:41:20.386Z,19.48
2019-02-24T14:43:24.561Z,22.52
2019-02-24T14:44:24.814Z,23.49
2019-02-24T14:46:29.025Z,22.20
2019-02-24T14:47:29.276Z,23.84
2019-02-24T14:49:33.484Z,23.40
2019-02-24T14:50:33.707Z,23.51
2019-02-24T14:52:37.908Z,22.16
2019-02-24T14:53:38.158Z,22.36
2019-02-24T14:55:42.339Z,21.88
2019-02-24T14:56:42.587Z,21.97
2019-02-24T14:58:46.787Z,21.03
2019-02-24T14:59:47.040Z,20.54
2019-02-24T15:01:51.240Z,19.58
2019-02-24T15:02:51.491Z,21.01
2019-02-24T15:04:55.687Z,21.98
2019-02-24T15:05:55.940Z,21.31
2019-02-24T15:07:49.070Z,21.61
2019-02-24T15:08:49.325Z,22.38
2019-02-24T15:10:53.507Z,22.27
2019-02-24T15:11:53.760Z,23.72
2019-02-24T15:13:57.960Z,24.96
2019-02-24T15:14:58.258Z,23.61
2019-02-24T15:17:02.410Z,25.13
2019-02-24T15:18:02.661Z,25.13
2019-02-24T15:20:06.838Z,23.90
2019-02-24T15:21:07.090Z,24.28
2019-02-24T15:23:12.311Z,24.75
2019-02-24T15:24:12.560Z,25.33
2019-02-24T15:26:16.743Z,26.29
2019-02-24T15:27:16.993Z,26.48
2019-02-24T15:29:21.199Z,25.88
2019-02-24T15:30:21.453Z,25.98
2019-02-24T15:32:25.655Z,28.58
2019-02-24T15:33:25.906Z,28.67
2019-02-24T15:35:30.081Z,30.69
2019-02-24T15:36:30.335Z,30.88
2019-02-24T15:38:23.461Z,30.39
2019-02-24T15:39:23.713Z,31.54
2019-02-24T15:41:30.006Z,32.31
2019-02-24T15:42:28.141Z,32.75
2019-02-24T15:44:32.336Z,32.82
2019-02-24T15:45:32.587Z,31.20
2019-02-24T15:47:36.822Z,30.04
2019-02-24T15:48:37.071Z,28.79
2019-02-24T15:50:41.267Z,27.55
2019-02-24T15:51:41.525Z,27.16
2019-02-24T15:53:45.721Z,27.72
2019-02-24T15:54:45.970Z,28.30
2019-02-24T15:56:50.141Z,27.71
2019-02-24T15:57:50.390Z,28.38
2019-02-24T15:59:54.585Z,30.30
2019-02-24T16:00:54.831Z,31.45
2019-02-24T16:03:01.807Z,31.64
2019-02-24T16:03:59.253Z,31.16
2019-02-24T16:06:03.441Z,31.64
2019-02-24T16:07:03.689Z,32.41
2019-02-24T16:09:07.890Z,32.59
2019-02-24T16:10:08.138Z,32.95
2019-02-24T16:12:12.320Z,38.20
2019-02-24T16:13:16.901Z,39.45
2019-02-24T16:15:16.798Z,38.59
2019-02-24T16:16:17.008Z,37.34
2019-02-24T16:18:10.125Z,36.11
2019-02-24T16:19:10.372Z,36.38
2019-02-24T16:21:14.542Z,35.52
2019-02-24T16:22:14.792Z,35.69
2019-02-24T16:24:18.980Z,36.94
2019-02-24T16:25:19.226Z,36.35
2019-02-24T16:27:23.390Z,37.66
2019-02-24T16:28:23.637Z,37.38
2019-02-24T16:30:27.820Z,39.65
2019-02-24T16:31:28.067Z,40.11
2019-02-24T16:33:32.249Z,41.83
2019-02-24T16:34:32.494Z,41.83
2019-02-24T16:36:36.656Z,40.97
2019-02-24T16:37:39.002Z,40.19
2019-02-24T16:39:41.082Z,40.28
2019-02-24T16:40:41.325Z,40.28
2019-02-24T16:42:45.496Z,40.83
2019-02-24T16:43:45.740Z,40.64
2019-02-24T16:45:49.921Z,42.05
2019-02-24T16:46:50.165Z,42.34
2019-02-24T16:48:54.345Z,42.13
2019-02-24T16:49:54.597Z,41.53
2019-02-24T16:51:58.745Z,41.06
2019-02-24T16:52:58.987Z,41.35
2019-02-24T16:55:03.188Z,40.48
2019-02-24T16:56:03.429Z,40.09
2019-02-24T16:57:56.546Z,40.28
2019-02-24T16:58:56.776Z,40.66
2019-02-24T17:01:00.950Z,41.04
2019-02-24T17:02:01.200Z,41.61
2019-02-24T17:04:05.368Z,43.21
2019-02-24T17:05:05.782Z,43.40
2019-02-24T17:07:09.943Z,43.02
2019-02-24T17:08:10.231Z,42.83
2019-02-24T17:10:14.559Z,43.87
2019-02-24T17:11:14.885Z,43.76
2019-02-24T17:13:19.156Z,43.28
2019-02-24T17:14:19.459Z,42.99
2019-02-24T17:16:23.709Z,42.61
2019-02-24T17:17:24.042Z,42.52
2019-02-24T17:19:28.354Z,43.19
2019-02-24T17:20:28.593Z,43.09
2019-02-24T17:22:32.794Z,43.07
2019-02-24T17:23:33.158Z,42.60
2019-02-24T17:25:37.484Z,43.95
2019-02-24T17:26:37.725Z,44.04
2019-02-24T17:28:41.917Z,44.92
2019-02-24T17:29:42.159Z,45.30
2019-02-24T17:31:46.417Z,44.42
2019-02-24T17:32:46.660Z,44.33
2019-02-24T17:34:50.973Z,44.04
2019-02-24T17:35:51.220Z,44.23
2019-02-24T17:37:44.331Z,45.07
2019-02-24T17:38:44.679Z,45.54
2019-02-24T17:40:48.867Z,46.11
2019-02-24T17:41:49.250Z,47.63
2019-02-24T17:43:53.394Z,48.85
2019-02-24T17:44:53.642Z,49.32
2019-02-24T17:46:57.939Z,50.27
2019-02-24T17:47:58.306Z,50.27
2019-02-24T17:50:03.618Z,51.39
2019-02-24T17:51:03.860Z,51.48
2019-02-24T17:53:08.006Z,51.95
2019-02-24T17:54:08.299Z,52.33
2019-02-24T17:56:12.489Z,52.14
2019-02-24T17:57:12.794Z,51.86
2019-02-24T17:59:16.993Z,51.86
2019-02-24T18:00:17.235Z,51.17
2019-02-24T18:02:21.553Z,50.98
2019-02-24T18:03:21.939Z,51.36
2019-02-24T18:05:26.082Z,50.79
2019-02-24T18:06:26.452Z,50.98
2019-02-24T18:08:27.926Z,49.58
2019-02-24T18:09:19.903Z,48.54
2019-02-24T18:11:24.080Z,48.63
2019-02-24T18:12:24.340Z,48.18
2019-02-24T18:14:28.498Z,46.75
2019-02-24T18:15:28.735Z,47.04
2019-02-24T18:17:32.925Z,47.71
2019-02-24T18:18:33.167Z,48.08
2019-02-24T18:20:37.498Z,50.62
2019-02-24T18:21:37.837Z,53.26
2019-02-24T18:23:42.048Z,61.61
2019-02-24T18:24:42.418Z,66.99
2019-02-24T18:26:46.650Z,64.90
2019-02-24T18:27:46.925Z,64.05
2019-02-24T18:29:51.156Z,64.24
2019-02-24T18:30:51.394Z,63.95
2019-02-24T18:32:55.759Z,61.30
2019-02-24T18:33:55.786Z,60.35
2019-02-24T18:35:59.974Z,59.30
2019-02-24T18:37:00.213Z,59.40
2019-02-24T18:39:04.366Z,58.99
2019-02-24T18:40:04.757Z,58.70
2019-02-24T18:42:08.948Z,59.66
2019-02-24T18:43:09.187Z,60.31
2019-02-24T18:45:13.340Z,62.02
2019-02-24T18:46:13.584Z,62.31
2019-02-24T18:48:06.706Z,61.46
2019-02-24T18:49:06.946Z,61.74
2019-02-24T18:51:11.191Z,60.25
2019-02-24T18:52:11.507Z,58.89
2019-02-24T18:54:15.758Z,58.33
2019-02-24T18:55:16.003Z,58.64
2019-02-24T18:57:21.202Z,57.88
2019-02-24T18:58:21.696Z,57.50
2019-02-24T19:00:25.666Z,56.74
2019-02-24T19:01:25.892Z,57.21
2019-02-24T19:03:30.132Z,57.38
2019-02-24T19:04:30.367Z,57.38
2019-02-24T19:06:39.198Z,59.66
2019-02-24T19:07:34.757Z,60.70
2019-02-24T19:09:38.941Z,61.83
2019-02-24T19:10:39.181Z,61.61
2019-02-24T19:12:43.394Z,62.47
2019-02-24T19:13:43.584Z,62.47
2019-02-24T19:15:47.732Z,63.04
2019-02-24T19:16:49.181Z,63.51
2019-02-24T19:18:52.137Z,61.46
2019-02-24T19:19:52.370Z,59.18
2019-02-24T19:21:56.514Z,55.76
2019-02-24T19:22:56.755Z,54.53
2019-02-24T19:25:00.919Z,53.96
2019-02-24T19:26:01.157Z,54.44
2019-02-24T19:27:54.255Z,56.62
2019-02-24T19:28:54.491Z,56.71
2019-02-24T19:30:58.635Z,58.42
2019-02-24T19:31:58.871Z,58.04
2019-02-24T19:34:06.721Z,58.33
2019-02-24T19:35:03.276Z,57.95
2019-02-24T19:37:07.420Z,57.57
2019-02-24T19:38:07.660Z,58.61
2019-02-24T19:40:11.824Z,61.05
2019-02-24T19:41:12.067Z,62.85